Weather at Austin Bergstrom International Airport

Public forecast

Using degrees Fahrenheit for public forecast. Weather courtesy of forecast.io.

Current aviation weather report (METAR) for Austin Bergstrom International Airport

Retrieved 2020/10/27 22:53 UTC (15 minutes ago):

KAUS 272253Z 34012G22KT 6SM BR OVC007 06/03 A3002 RMK AO2 SLP169 T00560033

Aviation forecast (TAF) for Austin Bergstrom International Airport

Retrieved 2020/10/27 18:22 UTC (5 hours ago):

TAF KAUS 271720Z 2718/2824 35013KT P6SM VCSH OVC007 FM272100 36013KT P6SM OVC008 FM280000 36012KT P6SM VCSH OVC008 FM280500 34011KT 3SM RADZ BR OVC004 FM281200 32013KT 3SM -DZ BR OVC004 PROB30 2812/2816 1SM -RA BR OVC001 FM281700 32012KT 5SM BR SCT005 FM281800 31012KT P6SM SCT050